createdAt,value
2023-01-04T00:04:19.745Z,77.17
2023-01-04T00:09:26.742Z,76.96
2023-01-04T00:14:34.639Z,77.57
2023-01-04T00:19:41.134Z,77.56
2023-01-04T00:24:47.895Z,77.99
2023-01-04T00:29:55.670Z,77.36
2023-01-04T00:35:02.199Z,77.87
2023-01-04T00:40:11.644Z,78.35
2023-01-04T00:45:20.442Z,78.26
2023-01-04T00:50:26.928Z,78.18
2023-01-04T00:55:33.733Z,77.76
2023-01-04T01:00:42.737Z,78.01
2023-01-04T01:05:49.141Z,78.17
2023-01-04T01:10:56.996Z,78.09
2023-01-04T01:16:11.166Z,77.85
2023-01-04T01:21:20.754Z,77.85
2023-01-04T01:26:28.346Z,78.45
2023-01-04T01:31:36.420Z,79.14
2023-01-04T01:36:43.116Z,78.68
2023-01-04T01:41:50.315Z,78.58
2023-01-04T01:46:58.944Z,77.87
2023-01-04T01:52:12.282Z,77.32
2023-01-04T01:57:24.301Z,77.36
2023-01-04T02:02:32.622Z,77.88
2023-01-04T02:07:40.415Z,77.99
2023-01-04T02:12:48.148Z,78.45
2023-01-04T02:18:05.821Z,78.36
2023-01-04T02:23:53.471Z,79.11
2023-01-04T02:29:54.004Z,79.13
2023-01-04T02:35:13.859Z,79.68
2023-01-04T02:40:30.036Z,78.89
2023-01-04T02:45:44.415Z,78.82
2023-01-04T02:50:58.524Z,79.32
2023-01-04T02:56:18.367Z,79.16
2023-01-04T03:01:57.498Z,79.97
2023-01-04T03:07:16.881Z,80.49
2023-01-04T03:12:35.761Z,80.40
2023-01-04T03:17:49.761Z,80.31
2023-01-04T03:23:21.731Z,79.97
2023-01-04T03:28:50.746Z,79.19
2023-01-04T03:34:13.980Z,79.08
2023-01-04T03:39:51.078Z,79.69
2023-01-04T03:45:31.860Z,80.55
2023-01-04T03:50:43.187Z,79.71
2023-01-04T03:55:52.775Z,79.54
2023-01-04T04:01:04.099Z,79.05
2023-01-04T04:06:29.166Z,78.24
2023-01-04T04:11:37.043Z,77.26
2023-01-04T04:16:43.902Z,78.02
2023-01-04T04:21:50.421Z,79.13
2023-01-04T04:26:58.526Z,78.94
2023-01-04T04:32:05.266Z,78.58
2023-01-04T04:37:11.918Z,79.09
2023-01-04T04:42:19.979Z,78.83
2023-01-04T04:47:26.319Z,77.92
2023-01-04T04:52:32.828Z,78.42
2023-01-04T04:57:40.834Z,79.19
2023-01-04T05:02:47.947Z,79.32
2023-01-04T05:07:54.857Z,80.95
2023-01-04T05:13:02.850Z,80.52
2023-01-04T05:18:11.432Z,80.46
2023-01-04T05:23:21.883Z,78.19
2023-01-04T05:28:30.467Z,78.89
2023-01-04T05:33:37.660Z,79.18
2023-01-04T05:38:44.210Z,80.51
2023-01-04T05:43:52.419Z,80.32
2023-01-04T05:48:58.962Z,79.99
2023-01-04T05:54:05.643Z,80.27
2023-01-04T05:59:14.035Z,78.93
2023-01-04T06:04:22.015Z,78.65
2023-01-04T06:09:28.978Z,79.09
2023-01-04T06:14:37.703Z,79.58
2023-01-04T06:19:44.764Z,79.27
2023-01-04T06:24:51.955Z,76.94
2023-01-04T06:30:00.438Z,78.58
2023-01-04T06:35:08.450Z,78.10
2023-01-04T06:40:15.967Z,77.74
2023-01-04T06:45:25.091Z,78.33
2023-01-04T06:50:33.006Z,77.48
2023-01-04T06:55:41.977Z,77.49
2023-01-04T07:00:54.726Z,76.25
2023-01-04T07:06:05.299Z,76.72
2023-01-04T07:11:13.234Z,78.91
2023-01-04T07:16:22.326Z,79.10
2023-01-04T07:21:30.416Z,78.91
2023-01-04T07:26:37.888Z,78.91
2023-01-04T07:31:48.853Z,79.16
2023-01-04T07:36:56.067Z,79.61
2023-01-04T07:42:03.112Z,79.68
2023-01-04T07:47:11.233Z,79.72
2023-01-04T07:52:19.682Z,81.30
2023-01-04T07:57:26.666Z,81.82
2023-01-04T08:02:35.505Z,82.41
2023-01-04T08:07:42.799Z,82.82
2023-01-04T08:12:49.645Z,82.99
2023-01-04T08:17:58.699Z,83.18
2023-01-04T08:23:06.313Z,83.81
2023-01-04T08:28:13.587Z,83.99
2023-01-04T08:33:21.920Z,84.37
2023-01-04T08:38:58.686Z,85.48
2023-01-04T08:43:55.480Z,86.02
2023-01-04T08:49:03.674Z,86.44
2023-01-04T08:54:12.060Z,86.89
2023-01-04T08:59:19.428Z,87.24
2023-01-04T09:04:27.869Z,87.52
2023-01-04T09:09:35.519Z,87.75
2023-01-04T09:14:42.172Z,87.76
2023-01-04T09:19:50.311Z,87.21
2023-01-04T09:24:57.313Z,87.59
2023-01-04T09:30:04.437Z,87.53
2023-01-04T09:35:13.395Z,86.87
2023-01-04T09:40:29.197Z,87.05
2023-01-04T09:45:35.779Z,87.36
2023-01-04T09:50:54.874Z,87.45
2023-01-04T09:56:18.756Z,87.74
2023-01-04T10:01:30.239Z,87.92
2023-01-04T10:06:40.381Z,88.09
2023-01-04T10:12:15.865Z,87.89
2023-01-04T10:18:34.119Z,87.79
2023-01-04T10:23:13.616Z,87.79
2023-01-04T10:28:38.240Z,87.62
2023-01-04T10:33:50.350Z,87.50
2023-01-04T10:39:04.275Z,87.74
2023-01-04T10:44:18.003Z,87.60
2023-01-04T10:49:35.626Z,87.43
2023-01-04T10:54:49.504Z,87.67
2023-01-04T11:00:03.281Z,87.45
2023-01-04T11:05:21.274Z,87.43
2023-01-04T11:10:36.754Z,87.23
2023-01-04T11:15:45.688Z,87.36
2023-01-04T11:20:52.593Z,87.30
2023-01-04T11:26:06.100Z,87.16
2023-01-04T11:31:24.687Z,87.07
2023-01-04T11:36:40.396Z,87.16
2023-01-04T11:42:02.927Z,86.94
2023-01-04T11:47:18.733Z,86.80
2023-01-04T11:52:34.322Z,86.48
2023-01-04T11:57:42.188Z,86.21
2023-01-04T12:03:01.383Z,86.04
2023-01-04T12:08:09.248Z,86.03
2023-01-04T12:13:18.154Z,85.85
2023-01-04T12:18:30.949Z,85.38
2023-01-04T12:23:37.180Z,85.15
2023-01-04T12:28:47.784Z,84.73
2023-01-04T12:33:56.543Z,84.39
2023-01-04T12:39:29.543Z,84.16
2023-01-04T12:45:25.289Z,83.99
2023-01-04T12:50:33.479Z,83.97
2023-01-04T12:56:01.395Z,84.10
2023-01-04T13:01:28.397Z,84.14
2023-01-04T13:06:48.157Z,83.71
2023-01-04T13:12:22.480Z,84.00
2023-01-04T13:17:31.564Z,83.96
2023-01-04T13:22:37.882Z,84.11
2023-01-04T13:27:58.547Z,83.82
2023-01-04T13:33:27.141Z,83.46
2023-01-04T13:38:37.415Z,83.46
2023-01-04T13:44:04.840Z,83.22
2023-01-04T13:49:17.624Z,83.24
2023-01-04T13:54:28.944Z,83.36
2023-01-04T13:59:39.649Z,83.37
2023-01-04T14:04:49.569Z,83.30
2023-01-04T14:10:02.060Z,83.28
2023-01-04T14:15:21.189Z,83.20
2023-01-04T14:20:38.267Z,83.50
2023-01-04T14:25:48.864Z,83.98
2023-01-04T14:30:58.176Z,84.88
2023-01-04T14:36:14.060Z,85.27
2023-01-04T14:41:24.363Z,86.32
2023-01-04T14:46:33.380Z,86.19
2023-01-04T14:51:46.577Z,86.61
2023-01-04T14:56:53.714Z,86.77
2023-01-04T15:02:00.947Z,86.95
2023-01-04T15:07:29.594Z,86.93
2023-01-04T15:12:36.169Z,86.49
2023-01-04T15:17:42.717Z,86.17
2023-01-04T15:22:50.756Z,86.15
2023-01-04T15:27:57.148Z,85.84
2023-01-04T15:33:03.603Z,85.60
2023-01-04T15:38:16.143Z,85.22
2023-01-04T15:43:25.099Z,85.71
2023-01-04T15:48:33.859Z,86.85
2023-01-04T15:53:42.245Z,86.99
2023-01-04T15:58:49.331Z,87.55
2023-01-04T16:03:56.063Z,87.55
2023-01-04T16:09:04.112Z,87.67
2023-01-04T16:14:12.383Z,87.62
2023-01-04T16:19:19.721Z,87.74
2023-01-04T16:29:54.456Z,88.39
2023-01-04T16:35:01.365Z,88.65
2023-01-04T16:40:13.900Z,88.25
2023-01-04T16:45:21.087Z,88.23
2023-01-04T16:50:28.718Z,89.00
2023-01-04T16:55:37.183Z,89.18
2023-01-04T17:00:44.208Z,89.13
2023-01-04T17:05:51.195Z,89.63
2023-01-04T17:11:27.591Z,89.45
2023-01-04T17:16:30.984Z,89.81
2023-01-04T17:21:41.065Z,89.57
2023-01-04T17:26:49.419Z,89.55
2023-01-04T17:31:56.353Z,89.65
2023-01-04T17:37:03.096Z,89.76
2023-01-04T17:42:12.477Z,89.73
2023-01-04T17:47:19.639Z,89.99
2023-01-04T17:52:31.033Z,90.44
2023-01-04T17:57:40.349Z,90.15
2023-01-04T18:02:47.686Z,90.25
2023-01-04T18:07:55.537Z,90.60
2023-01-04T18:13:03.978Z,90.33
2023-01-04T18:18:11.111Z,90.59
2023-01-04T18:23:25.287Z,90.71
2023-01-04T18:28:36.625Z,90.93
2023-01-04T18:33:45.041Z,91.22
2023-01-04T18:38:56.025Z,91.73
2023-01-04T18:44:31.376Z,91.74
2023-01-04T18:49:36.866Z,91.41
2023-01-04T18:54:45.538Z,91.62
2023-01-04T18:59:55.140Z,92.04
2023-01-04T19:05:06.753Z,91.64
2023-01-04T19:10:15.789Z,91.95
2023-01-04T19:15:26.506Z,91.92
2023-01-04T19:20:36.370Z,91.78
2023-01-04T19:25:47.993Z,91.90
2023-01-04T19:30:57.237Z,92.26
2023-01-04T19:36:08.425Z,92.14
2023-01-04T19:41:29.343Z,91.88
2023-01-04T19:46:45.682Z,91.89
2023-01-04T19:51:58.416Z,91.79
2023-01-04T19:57:07.673Z,91.95
2023-01-04T20:02:16.918Z,92.38
2023-01-04T20:07:24.802Z,92.34
2023-01-04T20:12:32.530Z,92.29
2023-01-04T20:17:45.228Z,92.61
2023-01-04T20:22:53.706Z,92.25
2023-01-04T20:28:02.810Z,91.96
2023-01-04T20:33:12.752Z,92.30
2023-01-04T20:38:25.068Z,92.33
2023-01-04T20:43:37.701Z,92.23
2023-01-04T20:48:46.878Z,92.50
2023-01-04T20:53:55.152Z,92.49
2023-01-04T20:59:03.234Z,92.37
2023-01-04T21:04:16.239Z,92.28
2023-01-04T21:09:24.671Z,92.45
2023-01-04T21:14:36.543Z,92.65
2023-01-04T21:19:46.250Z,92.61
2023-01-04T21:24:53.765Z,92.71
2023-01-04T21:30:01.614Z,92.77
2023-01-04T21:35:11.506Z,92.60
2023-01-04T21:40:17.881Z,92.63
2023-01-04T21:45:26.393Z,92.91
2023-01-04T21:50:38.777Z,92.65
2023-01-04T21:55:45.251Z,93.04
2023-01-04T22:00:52.088Z,93.25
2023-01-04T22:06:05.421Z,93.37
2023-01-04T22:11:12.433Z,93.05
2023-01-04T22:16:19.991Z,93.16
2023-01-04T22:21:28.272Z,93.11
2023-01-04T22:26:34.703Z,93.23
2023-01-04T22:31:41.016Z,93.14
2023-01-04T22:36:48.884Z,93.31
2023-01-04T22:41:55.200Z,93.32
2023-01-04T22:47:01.787Z,93.49
2023-01-04T22:52:09.670Z,93.44
2023-01-04T22:57:16.119Z,93.65
2023-01-04T23:02:22.732Z,93.55
2023-01-04T23:07:30.816Z,93.71
2023-01-04T23:12:37.184Z,93.49
2023-01-04T23:17:44.028Z,93.78
2023-01-04T23:22:51.834Z,93.62
2023-01-04T23:27:58.239Z,93.65
2023-01-04T23:33:04.630Z,93.90
2023-01-04T23:38:12.551Z,93.79
2023-01-04T23:43:18.787Z,93.55
2023-01-04T23:48:25.343Z,93.85
2023-01-04T23:53:33.433Z,93.94
2023-01-04T23:58:39.850Z,93.84
